Time;durP1;ratioP1;P1;durP2;ratioP2;P2;SDS_P1;SDS_P2;PMS_P1;PMS_P2;Temp;Humidity;BMP_temperature;BMP_pressure;BME280_temperature;BME280_humidity;BME280_pressure;Samples;Min_cycle;Max_cycle;Signal;HPM_P1;HPM_P2
2021/06/16 00:00:31;;;;;;;;;;;23.20;60.30;;;;;;4376330;32;40706;-73
2021/06/16 00:02:59;;;;;;;;;;;23.20;60.20;;;;;;4376649;32;20051;-73
2021/06/16 00:05:32;;;;;;;;;;;23.20;60.30;;;;;;4375467;32;20063;-73
2021/06/16 00:07:59;;;;;;;;;;;23.20;60.40;;;;;;4375159;32;23067;-73
2021/06/16 00:10:29;;;;;;;;;;;23.20;60.40;;;;;;4376698;32;20019;-73
2021/06/16 00:12:59;;;;;;;;;;;23.20;60.40;;;;;;4375085;32;21684;-73
2021/06/16 00:15:34;;;;;;;;;;;23.20;60.40;;;;;;4376017;32;20047;-73
2021/06/16 00:18:04;;;;;;;;;;;23.20;60.40;;;;;;4377231;32;20005;-73
2021/06/16 00:20:34;;;;;;;;;;;23.10;60.40;;;;;;4376576;32;20000;-73
2021/06/16 00:23:03;;;;;;;;;;;23.10;60.50;;;;;;4376710;32;20012;-73
2021/06/16 00:25:34;;;;;;;;;;;23.10;60.50;;;;;;4377058;32;20012;-73
2021/06/16 00:28:01;;;;;;;;;;;23.10;60.50;;;;;;4375094;32;20059;-73
2021/06/16 00:30:31;;;;;;;;;;;23.10;60.40;;;;;;4376674;32;20037;-73
2021/06/16 00:33:04;;;;;;;;;;;23.00;60.40;;;;;;4376992;32;20113;-73
2021/06/16 00:35:31;;;;;;;;;;;23.00;60.50;;;;;;4375927;32;42134;-73
2021/06/16 00:37:59;;;;;;;;;;;23.00;60.50;;;;;;4376530;32;20528;-73
2021/06/16 00:40:27;;;;;;;;;;;23.00;60.50;;;;;;4375823;32;43433;-73
2021/06/16 00:43:01;;;;;;;;;;;23.00;60.40;;;;;;4375023;32;20012;-73
2021/06/16 00:45:34;;;;;;;;;;;22.90;60.50;;;;;;4376310;32;20004;-73
2021/06/16 00:48:03;;;;;;;;;;;22.90;60.50;;;;;;4374321;32;43353;-73
2021/06/16 00:50:32;;;;;;;;;;;22.90;60.50;;;;;;4375427;32;43611;-73
2021/06/16 00:53:05;;;;;;;;;;;22.90;60.60;;;;;;4375551;32;20005;-73
2021/06/16 00:55:37;;;;;;;;;;;22.90;60.60;;;;;;4375549;32;20000;-73
2021/06/16 00:58:10;;;;;;;;;;;22.90;60.50;;;;;;4376383;32;20008;-73
2021/06/16 01:00:51;;;;;;;;;;;22.90;60.40;;;;;;4375502;32;20038;-73
2021/06/16 01:03:33;;;;;;;;;;;22.90;60.60;;;;;;4374663;32;44704;-73
2021/06/16 01:06:05;;;;;;;;;;;22.80;60.60;;;;;;4375492;32;20016;-73
2021/06/16 01:08:40;;;;;;;;;;;22.80;60.60;;;;;;4376092;32;21472;-73
2021/06/16 01:11:13;;;;;;;;;;;22.80;60.70;;;;;;4376433;32;20401;-73
2021/06/16 01:13:46;;;;;;;;;;;22.80;60.70;;;;;;4376080;32;20027;-73
2021/06/16 01:16:40;;;;;;;;;;;22.80;60.70;;;;;;4376733;32;20027;-73
2021/06/16 01:19:25;;;;;;;;;;;22.80;60.60;;;;;;4373941;32;44365;-73
2021/06/16 01:22:00;;;;;;;;;;;22.80;60.60;;;;;;4375358;32;44322;-73
2021/06/16 01:24:29;;;;;;;;;;;22.80;60.60;;;;;;4375127;32;44692;-73
2021/06/16 01:26:57;;;;;;;;;;;22.80;60.60;;;;;;4374873;32;42327;-73
2021/06/16 01:29:27;;;;;;;;;;;22.70;60.40;;;;;;4374698;32;43627;-73
2021/06/16 01:31:55;;;;;;;;;;;22.70;60.50;;;;;;4374948;32;43660;-73
2021/06/16 01:34:26;;;;;;;;;;;22.70;60.50;;;;;;4374959;32;43302;-73
2021/06/16 01:36:56;;;;;;;;;;;22.70;60.50;;;;;;4375156;32;44156;-73
2021/06/16 01:39:27;;;;;;;;;;;22.70;60.60;;;;;;4375782;32;21780;-73
2021/06/16 01:41:58;;;;;;;;;;;22.70;60.70;;;;;;4374613;32;20252;-73
2021/06/16 01:44:28;;;;;;;;;;;22.70;60.60;;;;;;4374956;32;44148;-73
2021/06/16 01:46:55;;;;;;;;;;;22.70;60.70;;;;;;4374852;32;43667;-73
2021/06/16 01:49:24;;;;;;;;;;;22.60;60.50;;;;;;4374950;32;44208;-73
2021/06/16 01:51:55;;;;;;;;;;;22.60;60.40;;;;;;4375172;32;22116;-73
2021/06/16 01:54:26;;;;;;;;;;;22.60;60.50;;;;;;4374173;32;41191;-73
2021/06/16 01:56:56;;;;;;;;;;;22.60;60.60;;;;;;4376117;32;20012;-73
2021/06/16 01:59:28;;;;;;;;;;;22.60;60.50;;;;;;4373955;32;44332;-73
2021/06/16 02:01:55;;;;;;;;;;;22.60;60.60;;;;;;4374898;32;31738;-73
2021/06/16 02:04:25;;;;;;;;;;;22.60;60.60;;;;;;4377221;32;43987;-73
2021/06/16 02:07:02;;;;;;;;;;;22.60;60.60;;;;;;4377544;32;43970;-73
2021/06/16 02:09:29;;;;;;;;;;;22.60;60.80;;;;;;4376377;32;42448;-73
2021/06/16 02:12:00;;;;;;;;;;;22.50;60.80;;;;;;4378224;32;20027;-73
2021/06/16 02:14:30;;;;;;;;;;;22.50;60.80;;;;;;4377163;32;44590;-74
2021/06/16 02:17:10;;;;;;;;;;;22.50;60.70;;;;;;4378093;32;44282;-71
2021/06/16 02:19:38;;;;;;;;;;;22.50;60.70;;;;;;4377373;32;44700;-71
2021/06/16 02:22:09;;;;;;;;;;;22.50;60.70;;;;;;4363749;32;43896;-71
2021/06/16 02:24:37;;;;;;;;;;;22.50;60.70;;;;;;4377598;32;44628;-71
2021/06/16 02:27:10;;;;;;;;;;;22.50;60.70;;;;;;4378814;32;20001;-71
2021/06/16 02:29:40;;;;;;;;;;;22.50;60.70;;;;;;4378619;32;20039;-71
2021/06/16 02:32:12;;;;;;;;;;;22.50;60.80;;;;;;4377069;32;42683;-71
2021/06/16 02:34:42;;;;;;;;;;;22.50;60.80;;;;;;4378132;32;24113;-71
2021/06/16 02:37:16;;;;;;;;;;;22.50;60.80;;;;;;4376089;32;37111;-71
2021/06/16 02:39:49;;;;;;;;;;;22.50;60.80;;;;;;4377035;32;20542;-71
2021/06/16 02:42:17;;;;;;;;;;;22.50;60.90;;;;;;4378665;32;20436;-71
2021/06/16 02:44:50;;;;;;;;;;;22.50;61.00;;;;;;4377975;32;21761;-71
2021/06/16 02:47:20;;;;;;;;;;;22.40;60.90;;;;;;4377434;32;43646;-70
2021/06/16 02:49:56;;;;;;;;;;;22.40;60.90;;;;;;4376758;32;44644;-71
2021/06/16 02:52:30;;;;;;;;;;;22.40;61.00;;;;;;4377966;32;21827;-71
2021/06/16 02:55:03;;;;;;;;;;;22.40;61.00;;;;;;4376944;32;20000;-70
2021/06/16 02:57:37;;;;;;;;;;;22.40;61.00;;;;;;4377271;32;20076;-71
2021/06/16 03:00:09;;;;;;;;;;;22.40;61.00;;;;;;4377062;32;38192;-71
2021/06/16 03:02:42;;;;;;;;;;;22.30;61.00;;;;;;4375499;32;43245;-71
2021/06/16 03:05:21;;;;;;;;;;;22.40;61.10;;;;;;4378006;32;20038;-70
2021/06/16 03:07:49;;;;;;;;;;;22.30;61.00;;;;;;4377099;32;43142;-70
2021/06/16 03:10:19;;;;;;;;;;;22.30;61.00;;;;;;4377036;32;44129;-71
2021/06/16 03:12:53;;;;;;;;;;;22.30;61.10;;;;;;4377536;32;21086;-71
2021/06/16 03:15:22;;;;;;;;;;;22.30;61.20;;;;;;4374939;32;42626;-70
2021/06/16 03:17:57;;;;;;;;;;;22.30;61.20;;;;;;4377279;32;20038;-71
2021/06/16 03:20:28;;;;;;;;;;;22.20;61.20;;;;;;4375794;32;39823;-70
2021/06/16 03:22:59;;;;;;;;;;;22.20;61.20;;;;;;4376940;32;20004;-71
2021/06/16 03:25:30;;;;;;;;;;;22.20;61.20;;;;;;4376701;32;43037;-70
2021/06/16 03:28:03;;;;;;;;;;;22.20;61.20;;;;;;4377039;32;32991;-71
2021/06/16 03:30:31;;;;;;;;;;;22.20;61.30;;;;;;4375433;32;44313;-71
2021/06/16 03:33:02;;;;;;;;;;;22.10;61.30;;;;;;4376502;32;44025;-71
2021/06/16 03:35:30;;;;;;;;;;;22.10;61.40;;;;;;4377469;32;20866;-70
2021/06/16 03:37:59;;;;;;;;;;;22.10;61.40;;;;;;4376793;32;20024;-71
2021/06/16 03:40:30;;;;;;;;;;;22.10;61.50;;;;;;4375988;32;20365;-71
2021/06/16 03:43:00;;;;;;;;;;;22.10;61.50;;;;;;4375678;32;44258;-71
2021/06/16 03:45:32;;;;;;;;;;;22.10;61.50;;;;;;4376644;32;43368;-71
2021/06/16 03:48:03;;;;;;;;;;;22.10;61.60;;;;;;4376595;32;44046;-70
2021/06/16 03:50:31;;;;;;;;;;;22.10;61.60;;;;;;4376464;32;44308;-71
2021/06/16 03:53:01;;;;;;;;;;;22.00;61.60;;;;;;4377167;32;20406;-71
2021/06/16 03:55:31;;;;;;;;;;;22.00;61.70;;;;;;4375905;32;20422;-70
2021/06/16 03:58:04;;;;;;;;;;;22.00;61.70;;;;;;4377502;32;20026;-71
2021/06/16 04:00:34;;;;;;;;;;;22.00;61.80;;;;;;4377334;32;20114;-70
2021/06/16 04:03:06;;;;;;;;;;;22.00;61.80;;;;;;4376109;32;43325;-71
2021/06/16 04:05:37;;;;;;;;;;;22.00;61.90;;;;;;4377152;32;25698;-71
2021/06/16 04:08:11;;;;;;;;;;;22.00;62.00;;;;;;4377392;32;20016;-71
2021/06/16 04:10:48;;;;;;;;;;;21.90;62.00;;;;;;4377033;32;20000;-70
2021/06/16 04:13:16;;;;;;;;;;;21.90;62.10;;;;;;4376096;32;44665;-70
2021/06/16 04:15:43;;;;;;;;;;;21.90;62.10;;;;;;4375916;32;43671;-71
2021/06/16 04:18:13;;;;;;;;;;;21.90;62.20;;;;;;4376145;32;44147;-70
2021/06/16 04:20:42;;;;;;;;;;;21.90;62.20;;;;;;4376331;32;20050;-70
2021/06/16 04:23:12;;;;;;;;;;;21.90;62.20;;;;;;4376851;32;20043;-71
2021/06/16 04:25:42;;;;;;;;;;;21.90;62.20;;;;;;4376378;32;20372;-70
2021/06/16 04:28:12;;;;;;;;;;;21.90;62.30;;;;;;4375773;32;44096;-71
2021/06/16 04:30:44;;;;;;;;;;;21.80;62.30;;;;;;4376452;32;19996;-71
2021/06/16 04:33:11;;;;;;;;;;;21.80;62.40;;;;;;4376075;32;20077;-71
2021/06/16 04:35:44;;;;;;;;;;;21.80;63.10;;;;;;4375286;32;42552;-70
2021/06/16 04:38:14;;;;;;;;;;;21.80;62.40;;;;;;4375773;32;44470;-71
2021/06/16 04:40:41;;;;;;;;;;;21.80;62.50;;;;;;4374461;32;43679;-71
2021/06/16 04:43:11;;;;;;;;;;;21.80;62.60;;;;;;4376497;32;20008;-73
2021/06/16 04:45:45;;;;;;;;;;;21.80;62.70;;;;;;4375565;32;43568;-73
2021/06/16 04:48:15;;;;;;;;;;;21.70;62.70;;;;;;4376484;32;20004;-73
2021/06/16 04:50:45;;;;;;;;;;;21.70;62.70;;;;;;4376404;32;19996;-73
2021/06/16 04:53:15;;;;;;;;;;;21.70;62.90;;;;;;4375469;32;43350;-74
2021/06/16 04:55:42;;;;;;;;;;;21.70;63.00;;;;;;4375030;32;44080;-73
2021/06/16 04:58:13;;;;;;;;;;;21.70;63.20;;;;;;4373904;32;44041;-73
2021/06/16 05:00:43;;;;;;;;;;;21.70;63.10;;;;;;4375899;32;20005;-73
2021/06/16 05:03:10;;;;;;;;;;;21.70;63.30;;;;;;4373722;32;45047;-72
2021/06/16 05:05:45;;;;;;;;;;;21.60;63.30;;;;;;4376475;32;20004;-72
2021/06/16 05:08:14;;;;;;;;;;;21.70;63.50;;;;;;4375398;32;43672;-72
2021/06/16 05:10:44;;;;;;;;;;;21.60;63.50;;;;;;4374112;32;43668;-72
2021/06/16 05:13:11;;;;;;;;;;;21.60;63.60;;;;;;4375766;32;31280;-72
2021/06/16 05:15:39;;;;;;;;;;;21.60;63.60;;;;;;4375009;32;44035;-72
2021/06/16 05:18:08;;;;;;;;;;;21.60;63.70;;;;;;4375344;32;24259;-72
2021/06/16 05:20:38;;;;;;;;;;;21.60;63.80;;;;;;4374722;32;42103;-73
2021/06/16 05:23:06;;;;;;;;;;;21.60;63.80;;;;;;4374901;32;42937;-72
2021/06/16 05:25:33;;;;;;;;;;;21.60;63.90;;;;;;4376144;32;20008;-72
2021/06/16 05:28:02;;;;;;;;;;;21.60;63.90;;;;;;4374909;32;44041;-72
2021/06/16 05:30:29;;;;;;;;;;;21.60;64.00;;;;;;4373853;32;43024;-72
2021/06/16 05:32:59;;;;;;;;;;;21.60;64.10;;;;;;4375127;32;43663;-72
2021/06/16 05:35:29;;;;;;;;;;;21.60;64.30;;;;;;4375272;32;41283;-72
2021/06/16 05:37:56;;;;;;;;;;;21.60;64.20;;;;;;4375874;32;33740;-72
2021/06/16 05:40:23;;;;;;;;;;;21.60;64.30;;;;;;4378610;32;20082;-72
2021/06/16 05:42:50;;;;;;;;;;;21.60;64.30;;;;;;4378213;32;44690;-72
2021/06/16 05:45:17;;;;;;;;;;;21.60;64.20;;;;;;4378684;32;26432;-72
2021/06/16 05:47:44;;;;;;;;;;;21.60;64.20;;;;;;4378856;32;20008;-72
2021/06/16 05:50:12;;;;;;;;;;;21.60;64.30;;;;;;4379193;32;20089;-72
2021/06/16 05:52:40;;;;;;;;;;;21.60;64.30;;;;;;4379079;32;20008;-72
2021/06/16 05:55:10;;;;;;;;;;;21.60;64.40;;;;;;4378997;32;20008;-72
2021/06/16 05:57:37;;;;;;;;;;;21.60;64.40;;;;;;4378126;32;42022;-72
2021/06/16 06:00:09;;;;;;;;;;;21.60;64.50;;;;;;4377979;32;42642;-72
2021/06/16 06:02:44;;;;;;;;;;;21.60;64.60;;;;;;4376316;32;43857;-72
2021/06/16 06:05:11;;;;;;;;;;;21.60;64.70;;;;;;4377520;32;44461;-72
2021/06/16 06:07:39;;;;;;;;;;;21.60;64.90;;;;;;4377882;32;42771;-72
2021/06/16 06:10:06;;;;;;;;;;;21.60;64.90;;;;;;4377631;32;44661;-72
2021/06/16 06:12:34;;;;;;;;;;;21.60;65.00;;;;;;4376636;32;42242;-71
2021/06/16 06:15:02;;;;;;;;;;;21.60;65.10;;;;;;4377766;32;41829;-72
2021/06/16 06:17:29;;;;;;;;;;;21.60;65.30;;;;;;4376463;32;43615;-72
2021/06/16 06:19:56;;;;;;;;;;;21.60;65.30;;;;;;4377572;32;43342;-72
2021/06/16 06:22:25;;;;;;;;;;;21.60;65.30;;;;;;4377442;32;43472;-72
2021/06/16 06:24:52;;;;;;;;;;;21.60;65.40;;;;;;4377156;32;40916;-72
2021/06/16 06:27:20;;;;;;;;;;;21.60;65.50;;;;;;4377551;32;43646;-72
2021/06/16 06:29:47;;;;;;;;;;;21.70;65.70;;;;;;4378163;32;20020;-72
2021/06/16 06:32:14;;;;;;;;;;;21.70;66.00;;;;;;4377376;32;44624;-72
2021/06/16 06:34:43;;;;;;;;;;;21.70;65.80;;;;;;4377740;32;20013;-72
2021/06/16 06:37:10;;;;;;;;;;;21.70;66.00;;;;;;4378752;32;20038;-72
2021/06/16 06:39:38;;;;;;;;;;;21.70;66.10;;;;;;4378421;32;20004;-72
2021/06/16 06:42:07;;;;;;;;;;;21.70;66.30;;;;;;4378422;32;20028;-72
2021/06/16 06:44:35;;;;;;;;;;;21.70;66.40;;;;;;4377147;32;44276;-72
2021/06/16 06:47:18;;;;;;;;;;;21.70;66.50;;;;;;4377475;32;43990;-72
2021/06/16 06:49:45;;;;;;;;;;;21.70;66.60;;;;;;4376755;32;43286;-72
2021/06/16 06:52:15;;;;;;;;;;;21.70;67.50;;;;;;4375667;32;44580;-72
2021/06/16 06:54:42;;;;;;;;;;;21.70;66.90;;;;;;4376095;32;44672;-72
2021/06/16 06:57:09;;;;;;;;;;;21.80;67.10;;;;;;4376804;32;45078;-72
2021/06/16 06:59:39;;;;;;;;;;;21.80;67.20;;;;;;4377541;32;44208;-72
2021/06/16 07:02:09;;;;;;;;;;;21.80;67.20;;;;;;4376669;32;36867;-72
2021/06/16 07:04:38;;;;;;;;;;;21.80;67.30;;;;;;4376536;32;44689;-72
2021/06/16 07:07:08;;;;;;;;;;;21.80;67.30;;;;;;4376829;32;31295;-72
2021/06/16 07:09:35;;;;;;;;;;;21.80;67.40;;;;;;4376551;32;42957;-72
2021/06/16 07:12:05;;;;;;;;;;;21.90;67.60;;;;;;4377050;32;42333;-72
2021/06/16 07:14:37;;;;;;;;;;;21.90;67.60;;;;;;4376654;32;37165;-72
2021/06/16 07:17:05;;;;;;;;;;;21.90;67.60;;;;;;4376862;32;44054;-72
2021/06/16 07:19:32;;;;;;;;;;;21.90;67.80;;;;;;4376808;32;44013;-72
2021/06/16 07:22:03;;;;;;;;;;;21.90;67.80;;;;;;4375232;32;46720;-72
2021/06/16 07:24:32;;;;;;;;;;;21.90;67.80;;;;;;4376554;32;43649;-72
2021/06/16 07:26:59;;;;;;;;;;;22.00;68.00;;;;;;4376680;32;29218;-72
2021/06/16 07:29:29;;;;;;;;;;;22.00;68.10;;;;;;4376818;32;44328;-72
2021/06/16 07:31:56;;;;;;;;;;;22.00;68.10;;;;;;4376716;32;20056;-72
2021/06/16 07:34:23;;;;;;;;;;;22.00;68.20;;;;;;4375561;32;41117;-72
2021/06/16 07:36:56;;;;;;;;;;;22.00;68.20;;;;;;4376320;32;20055;-71
2021/06/16 07:39:27;;;;;;;;;;;22.00;68.30;;;;;;4377654;32;20021;-72
2021/06/16 07:41:56;;;;;;;;;;;22.10;68.50;;;;;;4376596;32;34458;-72
2021/06/16 07:44:26;;;;;;;;;;;22.10;68.50;;;;;;4375566;32;42444;-72
2021/06/16 07:46:57;;;;;;;;;;;22.10;68.60;;;;;;4376775;32;27714;-72
2021/06/16 07:49:25;;;;;;;;;;;22.10;68.60;;;;;;4375541;32;44373;-72
2021/06/16 07:51:52;;;;;;;;;;;22.10;68.70;;;;;;4376522;32;44212;-72
2021/06/16 07:54:22;;;;;;;;;;;22.10;68.70;;;;;;4377245;32;20008;-72
2021/06/16 07:56:50;;;;;;;;;;;22.10;68.70;;;;;;4375833;32;43400;-72
2021/06/16 07:59:17;;;;;;;;;;;22.10;68.70;;;;;;4376309;32;42649;-72
2021/06/16 08:01:47;;;;;;;;;;;22.10;68.80;;;;;;4376597;32;20012;-72
2021/06/16 08:04:15;;;;;;;;;;;22.10;68.90;;;;;;4377302;32;20037;-72
2021/06/16 08:06:44;;;;;;;;;;;22.20;69.10;;;;;;4375871;32;44480;-72
2021/06/16 08:09:12;;;;;;;;;;;22.20;69.00;;;;;;4374683;32;40490;-72
2021/06/16 08:11:42;;;;;;;;;;;22.20;69.10;;;;;;4376094;32;19997;-71
2021/06/16 08:14:11;;;;;;;;;;;22.20;69.30;;;;;;4374975;32;44311;-71
2021/06/16 08:16:39;;;;;;;;;;;22.20;69.20;;;;;;4374444;32;41984;-72
2021/06/16 08:19:08;;;;;;;;;;;22.20;69.20;;;;;;4376081;32;42086;-72
2021/06/16 08:21:38;;;;;;;;;;;22.30;69.30;;;;;;4376037;32;43744;-71
2021/06/16 08:24:05;;;;;;;;;;;22.30;69.40;;;;;;4374727;32;43365;-71
2021/06/16 08:26:35;;;;;;;;;;;22.30;69.40;;;;;;4375268;32;43356;-71
2021/06/16 08:29:02;;;;;;;;;;;22.30;69.40;;;;;;4374242;32;44278;-71
2021/06/16 08:31:29;;;;;;;;;;;22.30;69.30;;;;;;4374314;32;43088;-71
2021/06/16 08:33:59;;;;;;;;;;;22.30;69.40;;;;;;4375388;32;20253;-71
2021/06/16 08:36:27;;;;;;;;;;;22.40;69.50;;;;;;4375267;32;42756;-72
2021/06/16 08:38:59;;;;;;;;;;;22.40;69.50;;;;;;4375696;32;19996;-72
2021/06/16 08:41:27;;;;;;;;;;;22.40;69.50;;;;;;4375503;32;43610;-71
2021/06/16 08:43:55;;;;;;;;;;;22.40;69.60;;;;;;4375515;32;43671;-71
2021/06/16 08:46:22;;;;;;;;;;;22.50;69.80;;;;;;4375536;32;44725;-71
2021/06/16 08:48:50;;;;;;;;;;;22.40;69.60;;;;;;4373964;32;44368;-71
2021/06/16 08:51:19;;;;;;;;;;;22.40;69.70;;;;;;4375467;32;42617;-71
2021/06/16 08:53:52;;;;;;;;;;;22.50;69.70;;;;;;4373919;32;43675;-71
2021/06/16 08:56:19;;;;;;;;;;;22.50;69.80;;;;;;4375885;32;38125;-71
2021/06/16 08:58:46;;;;;;;;;;;22.50;69.80;;;;;;4373890;32;43882;-71
2021/06/16 09:01:18;;;;;;;;;;;22.50;69.80;;;;;;4375279;32;44676;-71
2021/06/16 09:03:45;;;;;;;;;;;22.50;69.90;;;;;;4375479;32;44673;-71
2021/06/16 09:06:15;;;;;;;;;;;22.50;69.80;;;;;;4375285;32;44999;-71
2021/06/16 09:08:55;;;;;;;;;;;22.60;70.00;;;;;;4374958;32;43370;-71
2021/06/16 09:11:30;;;;;;;;;;;22.60;70.10;;;;;;4376119;32;20987;-71
2021/06/16 09:14:30;;;;;;;;;;;22.60;70.10;;;;;;4374434;32;20022;-71
2021/06/16 09:17:00;;;;;;;;;;;22.60;70.10;;;;;;4358266;32;34033;-71
2021/06/16 09:19:31;;;;;;;;;;;22.70;70.20;;;;;;4375298;32;44486;-71
2021/06/16 09:22:01;;;;;;;;;;;22.60;70.20;;;;;;4376184;32;20005;-71
2021/06/16 09:24:45;;;;;;;;;;;22.70;70.20;;;;;;4374674;32;20008;-71
2021/06/16 09:27:32;;;;;;;;;;;22.70;70.30;;;;;;4376418;32;20009;-71
2021/06/16 09:30:06;;;;;;;;;;;22.70;70.60;;;;;;4375289;32;20004;-71
2021/06/16 09:32:43;;;;;;;;;;;22.80;70.50;;;;;;4376458;32;20009;-71
2021/06/16 09:35:21;;;;;;;;;;;22.70;70.50;;;;;;4375113;32;20027;-71
2021/06/16 09:37:48;;;;;;;;;;;22.80;70.60;;;;;;4374841;32;20001;-71
2021/06/16 09:40:25;;;;;;;;;;;22.80;70.60;;;;;;4375569;32;20012;-71
2021/06/16 09:43:03;;;;;;;;;;;22.80;70.90;;;;;;4376480;32;20043;-71
2021/06/16 09:45:35;;;;;;;;;;;22.90;70.80;;;;;;4376087;32;19996;-71
2021/06/16 09:48:21;;;;;;;;;;;22.80;70.70;;;;;;4376313;32;20064;-71
2021/06/16 09:50:55;;;;;;;;;;;22.90;70.70;;;;;;4374032;32;31924;-71
2021/06/16 09:53:22;;;;;;;;;;;22.90;70.80;;;;;;4375429;32;37919;-71
2021/06/16 09:55:51;;;;;;;;;;;22.90;70.80;;;;;;4374048;32;35640;-70
2021/06/16 09:58:19;;;;;;;;;;;22.90;70.90;;;;;;4375569;32;26644;-71
2021/06/16 10:00:49;;;;;;;;;;;22.90;70.90;;;;;;4376008;32;20000;-71
2021/06/16 10:03:21;;;;;;;;;;;22.90;71.00;;;;;;4374619;32;20022;-70
2021/06/16 10:06:07;;;;;;;;;;;23.00;71.50;;;;;;4373920;32;43792;-70
2021/06/16 10:08:43;;;;;;;;;;;23.00;71.10;;;;;;4374785;32;20071;-70
2021/06/16 10:11:17;;;;;;;;;;;23.00;71.20;;;;;;4376020;32;20389;-70
2021/06/16 10:13:47;;;;;;;;;;;23.00;71.60;;;;;;4374170;32;25290;-70
2021/06/16 10:16:17;;;;;;;;;;;23.10;71.50;;;;;;4375716;32;20515;-70
2021/06/16 10:18:45;;;;;;;;;;;23.20;71.80;;;;;;4375015;32;43985;-70
2021/06/16 10:21:13;;;;;;;;;;;23.20;71.40;;;;;;4375282;32;28998;-70
2021/06/16 10:23:43;;;;;;;;;;;23.20;71.40;;;;;;4375670;32;24440;-70
2021/06/16 10:26:22;;;;;;;;;;;23.30;71.80;;;;;;4377096;32;43510;-70
2021/06/16 10:28:54;;;;;;;;;;;23.30;71.90;;;;;;4378715;32;20008;-70
2021/06/16 10:31:25;;;;;;;;;;;23.40;72.10;;;;;;4377856;32;20027;-70
2021/06/16 10:33:56;;;;;;;;;;;23.40;72.20;;;;;;4377770;32;20004;-71
2021/06/16 10:36:24;;;;;;;;;;;23.50;71.40;;;;;;4376802;32;22400;-70
2021/06/16 10:38:57;;;;;;;;;;;23.50;71.40;;;;;;4378137;32;20004;-69
2021/06/16 10:41:43;;;;;;;;;;;23.60;72.60;;;;;;4376951;32;44355;-71
2021/06/16 10:44:14;;;;;;;;;;;23.70;71.90;;;;;;4377600;32;21282;-70
2021/06/16 10:46:53;;;;;;;;;;;23.80;71.30;;;;;;4377133;32;19997;-70
2021/06/16 10:49:33;;;;;;;;;;;23.80;71.50;;;;;;4377390;32;25765;-70
2021/06/16 10:52:00;;;;;;;;;;;23.90;71.30;;;;;;4377999;32;20038;-70
2021/06/16 10:54:30;;;;;;;;;;;23.90;71.60;;;;;;4378153;32;20311;-70
2021/06/16 10:57:09;;;;;;;;;;;23.90;71.60;;;;;;4376741;32;21806;-70
2021/06/16 10:59:43;;;;;;;;;;;24.00;71.50;;;;;;4375590;32;45160;-70
2021/06/16 11:02:10;;;;;;;;;;;24.10;71.60;;;;;;4377544;32;21486;-70
2021/06/16 11:04:46;;;;;;;;;;;24.20;71.90;;;;;;4377115;32;20001;-70
2021/06/16 11:07:31;;;;;;;;;;;24.20;71.30;;;;;;4377031;32;44688;-70
2021/06/16 11:09:59;;;;;;;;;;;24.20;71.50;;;;;;4376553;32;44307;-70
2021/06/16 11:12:32;;;;;;;;;;;24.20;71.50;;;;;;4376498;32;19992;-70
2021/06/16 11:15:04;;;;;;;;;;;24.20;71.30;;;;;;4377534;32;20009;-70
2021/06/16 11:17:34;;;;;;;;;;;24.30;71.10;;;;;;4378216;32;20369;-70
2021/06/16 11:20:10;;;;;;;;;;;24.30;71.20;;;;;;4376541;32;20046;-70
2021/06/16 11:22:41;;;;;;;;;;;24.30;71.20;;;;;;4378128;32;20009;-71
2021/06/16 11:25:12;;;;;;;;;;;24.30;71.90;;;;;;4377812;32;20398;-70
2021/06/16 11:27:50;;;;;;;;;;;24.40;72.00;;;;;;4376990;32;20001;-71
2021/06/16 11:30:35;;;;;;;;;;;24.40;71.60;;;;;;4377072;32;24645;-71
2021/06/16 11:33:15;;;;;;;;;;;24.50;71.30;;;;;;4377615;32;20448;-71
2021/06/16 11:35:48;;;;;;;;;;;24.50;71.20;;;;;;4375843;32;20535;-72
2021/06/16 11:38:18;;;;;;;;;;;24.60;71.30;;;;;;4376358;32;21918;-70
2021/06/16 11:41:16;;;;;;;;;;;24.60;71.10;;;;;;4376423;32;20066;-70
2021/06/16 11:43:44;;;;;;;;;;;24.60;71.00;;;;;;4373735;32;43484;-71
2021/06/16 11:46:11;;;;;;;;;;;24.60;71.10;;;;;;4375544;32;44301;-72
2021/06/16 11:48:39;;;;;;;;;;;24.60;71.00;;;;;;4376767;32;20047;-71
2021/06/16 11:51:10;;;;;;;;;;;24.60;70.90;;;;;;4376061;32;20020;-72
2021/06/16 11:53:40;;;;;;;;;;;24.70;70.60;;;;;;4377023;32;20016;-72
2021/06/16 11:56:09;;;;;;;;;;;24.70;70.60;;;;;;4377709;32;20012;-71
2021/06/16 11:58:40;;;;;;;;;;;24.70;70.50;;;;;;4375969;32;20082;-72
2021/06/16 12:01:12;;;;;;;;;;;24.80;70.30;;;;;;4377387;32;20004;-72
2021/06/16 12:03:44;;;;;;;;;;;24.80;70.00;;;;;;4376989;32;20012;-72
2021/06/16 12:06:16;;;;;;;;;;;24.90;70.00;;;;;;4377007;32;20405;-72
2021/06/16 12:08:55;;;;;;;;;;;24.90;70.00;;;;;;4377227;32;20020;-72
2021/06/16 12:11:31;;;;;;;;;;;24.90;70.00;;;;;;4377505;32;20012;-72
2021/06/16 12:14:08;;;;;;;;;;;25.00;69.60;;;;;;4377474;32;20008;-71
2021/06/16 12:16:45;;;;;;;;;;;25.10;69.40;;;;;;4376557;32;20866;-72
2021/06/16 12:19:19;;;;;;;;;;;25.10;69.20;;;;;;4377540;32;20012;-72
2021/06/16 12:22:00;;;;;;;;;;;25.20;69.30;;;;;;4377207;32;20070;-72
2021/06/16 12:24:34;;;;;;;;;;;25.20;69.20;;;;;;4376052;32;20041;-72
2021/06/16 12:27:21;;;;;;;;;;;25.20;69.30;;;;;;4375547;32;20039;-72
2021/06/16 12:29:53;;;;;;;;;;;25.20;69.20;;;;;;4375888;32;20021;-69
2021/06/16 12:32:51;;;;;;;;;;;25.20;69.30;;;;;;4375368;32;20401;-73
2021/06/16 12:35:40;;;;;;;;;;;25.30;69.00;;;;;;4376127;32;20059;-76
2021/06/16 12:38:18;;;;;;;;;;;25.30;69.00;;;;;;4375956;32;20056;-72
2021/06/16 12:40:50;;;;;;;;;;;25.30;69.00;;;;;;4377247;32;20056;-72
2021/06/16 12:43:26;;;;;;;;;;;25.40;69.10;;;;;;4376816;32;20004;-72
2021/06/16 12:46:01;;;;;;;;;;;25.40;69.10;;;;;;4375732;32;19996;-71
2021/06/16 12:48:33;;;;;;;;;;;25.40;68.10;;;;;;4376893;32;20024;-72
2021/06/16 12:51:02;;;;;;;;;;;25.50;68.70;;;;;;4375737;32;20373;-72
2021/06/16 12:53:35;;;;;;;;;;;25.50;68.70;;;;;;4376114;32;19996;-71
2021/06/16 12:56:08;;;;;;;;;;;25.50;68.50;;;;;;4375819;32;20076;-71
2021/06/16 12:58:51;;;;;;;;;;;25.60;68.70;;;;;;4375791;32;37095;-72
2021/06/16 13:01:24;;;;;;;;;;;25.60;68.50;;;;;;4374493;32;43303;-71
2021/06/16 13:03:52;;;;;;;;;;;25.60;68.70;;;;;;4376597;32;20031;-71
2021/06/16 13:06:29;;;;;;;;;;;25.70;68.70;;;;;;4375698;32;37544;-71
2021/06/16 13:09:02;;;;;;;;;;;25.70;68.50;;;;;;4375329;32;44525;-71
2021/06/16 13:11:32;;;;;;;;;;;25.70;68.50;;;;;;4375724;32;39475;-71
2021/06/16 13:14:13;;;;;;;;;;;25.80;68.60;;;;;;4374237;32;43973;-71
2021/06/16 13:16:40;;;;;;;;;;;25.80;68.50;;;;;;4375359;32;44592;-71
2021/06/16 13:19:09;;;;;;;;;;;25.80;68.60;;;;;;4374777;32;44993;-71
2021/06/16 13:21:37;;;;;;;;;;;25.80;68.60;;;;;;4374227;32;43063;-71
2021/06/16 13:24:08;;;;;;;;;;;25.80;68.40;;;;;;4374788;32;43423;-71
2021/06/16 13:26:38;;;;;;;;;;;25.80;68.50;;;;;;4375436;32;43474;-71
2021/06/16 13:29:06;;;;;;;;;;;25.80;68.50;;;;;;4375339;32;20010;-71
2021/06/16 13:31:34;;;;;;;;;;;25.80;68.50;;;;;;4375780;32;20414;-71
2021/06/16 13:34:14;;;;;;;;;;;25.90;68.50;;;;;;4375106;32;20030;-71
2021/06/16 13:36:43;;;;;;;;;;;25.90;68.50;;;;;;4375637;32;28647;-71
2021/06/16 13:39:13;;;;;;;;;;;25.90;68.00;;;;;;4373748;32;45451;-71
2021/06/16 13:41:57;;;;;;;;;;;25.90;68.40;;;;;;4375123;32;40423;-71
2021/06/16 13:44:24;;;;;;;;;;;26.00;68.40;;;;;;4374062;32;44712;-71
2021/06/16 13:46:51;;;;;;;;;;;26.00;68.30;;;;;;4374820;32;39686;-71
2021/06/16 13:49:20;;;;;;;;;;;26.00;68.40;;;;;;4373665;32;46444;-71
2021/06/16 13:51:50;;;;;;;;;;;26.00;68.20;;;;;;4374824;32;43350;-71
2021/06/16 13:54:21;;;;;;;;;;;26.10;68.30;;;;;;4375154;32;20090;-71
2021/06/16 13:56:53;;;;;;;;;;;26.10;68.20;;;;;;4375053;32;44693;-71
2021/06/16 13:59:23;;;;;;;;;;;26.20;68.30;;;;;;4362810;32;43782;-72
2021/06/16 14:01:50;;;;;;;;;;;26.20;68.30;;;;;;4377604;32;20020;-72
2021/06/16 14:04:26;;;;;;;;;;;26.30;68.20;;;;;;4379227;32;20017;-71
2021/06/16 14:06:56;;;;;;;;;;;26.30;68.10;;;;;;4377184;32;37401;-71
2021/06/16 14:09:23;;;;;;;;;;;26.30;68.10;;;;;;4377293;32;43967;-72
2021/06/16 14:11:51;;;;;;;;;;;26.30;68.10;;;;;;4377792;32;32882;-72
2021/06/16 14:14:18;;;;;;;;;;;26.40;68.20;;;;;;4377326;32;43344;-71
2021/06/16 14:16:50;;;;;;;;;;;26.40;68.20;;;;;;4378942;32;20019;-72
2021/06/16 14:19:17;;;;;;;;;;;26.40;68.20;;;;;;4377677;32;41094;-71
2021/06/16 14:21:51;;;;;;;;;;;26.50;68.20;;;;;;4376574;32;44678;-71
2021/06/16 14:24:18;;;;;;;;;;;26.50;68.10;;;;;;4377738;32;43667;-71
2021/06/16 14:26:54;;;;;;;;;;;26.50;68.10;;;;;;4377416;32;20039;-71
2021/06/16 14:29:21;;;;;;;;;;;26.50;68.10;;;;;;4377613;32;39780;-71
2021/06/16 14:31:51;;;;;;;;;;;26.60;67.70;;;;;;4376067;32;41626;-71
2021/06/16 14:34:24;;;;;;;;;;;26.60;68.10;;;;;;4376523;32;44598;-71
2021/06/16 14:36:55;;;;;;;;;;;26.60;68.00;;;;;;4376390;32;43357;-72
2021/06/16 14:39:25;;;;;;;;;;;26.60;67.90;;;;;;4376779;32;25694;-72